Time;durP1;ratioP1;P1;durP2;ratioP2;P2;SDS_P1;SDS_P2;PMS_P1;PMS_P2;Temp;Humidity;BMP_temperature;BMP_pressure;BME280_temperature;BME280_humidity;BME280_pressure;Samples;Min_cycle;Max_cycle;Signal;HPM_P1;HPM_P2
2023/07/29 00:02:22;;;;;;;9.80;2.40;;;;;;;;;;5032087;28;20133;-74
2023/07/29 00:04:47;;;;;;;9.65;2.03;;;;;;;;;;5019462;28;20051;-72
2023/07/29 00:07:12;;;;;;;8.45;2.00;;;;;;;;;;5016576;28;20482;-74
2023/07/29 00:09:38;;;;;;;10.18;1.90;;;;;;;;;;5018990;28;20119;-73
2023/07/29 00:12:06;;;;;;;10.88;3.05;;;;;;;;;;5017590;28;20059;-72
2023/07/29 00:14:31;;;;;;;8.25;2.55;;;;;;;;;;5018562;28;20033;-74
2023/07/29 00:16:56;;;;;;;4.55;1.67;;;;;;;;;;5017462;28;20071;-74
2023/07/29 00:19:23;;;;;;;5.88;1.90;;;;;;;;;;5019439;28;20498;-73
2023/07/29 00:21:48;;;;;;;5.63;2.20;;;;;;;;;;5012089;28;22487;-72
2023/07/29 00:24:14;;;;;;;7.43;1.90;;;;;;;;;;5017820;28;20067;-74
2023/07/29 00:26:39;;;;;;;7.65;1.98;;;;;;;;;;5017051;28;20042;-73
2023/07/29 00:29:04;;;;;;;8.23;2.13;;;;;;;;;;5017779;28;20189;-73
2023/07/29 00:31:32;;;;;;;10.15;2.08;;;;;;;;;;5012035;28;20620;-75
2023/07/29 00:33:58;;;;;;;6.82;1.80;;;;;;;;;;5015298;28;20033;-74
2023/07/29 00:36:23;;;;;;;8.18;2.28;;;;;;;;;;5017541;28;20049;-74
2023/07/29 00:38:48;;;;;;;7.55;2.00;;;;;;;;;;5019346;28;20446;-72
2023/07/29 00:41:14;;;;;;;10.93;2.28;;;;;;;;;;5016445;28;20037;-73
2023/07/29 00:43:39;;;;;;;6.90;1.83;;;;;;;;;;5017323;28;20059;-74
2023/07/29 00:46:05;;;;;;;6.55;2.30;;;;;;;;;;5017476;28;20081;-74
2023/07/29 00:48:30;;;;;;;11.60;2.47;;;;;;;;;;5018792;28;20071;-74
2023/07/29 00:50:56;;;;;;;8.40;1.90;;;;;;;;;;5018984;28;20060;-71
2023/07/29 00:53:21;;;;;;;9.18;2.30;;;;;;;;;;5013302;28;20572;-74
2023/07/29 00:55:47;;;;;;;10.05;2.28;;;;;;;;;;5017572;28;20382;-74
2023/07/29 00:58:14;;;;;;;9.50;2.10;;;;;;;;;;5016738;28;20731;-72
2023/07/29 01:00:39;;;;;;;10.00;2.40;;;;;;;;;;5045649;28;20103;-70
2023/07/29 01:03:05;;;;;;;9.88;2.25;;;;;;;;;;5014909;28;20039;-73
2023/07/29 01:05:35;;;;;;;9.38;2.20;;;;;;;;;;5018883;28;20350;-72
2023/07/29 01:08:17;;;;;;;10.02;2.47;;;;;;;;;;5018008;28;20128;-73
2023/07/29 01:11:03;;;;;;;9.00;2.50;;;;;;;;;;5017453;28;20307;-72
2023/07/29 01:13:37;;;;;;;8.00;2.10;;;;;;;;;;4994699;28;20079;-73
2023/07/29 01:16:07;;;;;;;10.88;2.40;;;;;;;;;;4995647;28;20498;-72
2023/07/29 01:18:35;;;;;;;13.23;3.15;;;;;;;;;;5011611;28;21768;-73
2023/07/29 01:21:03;;;;;;;9.25;2.08;;;;;;;;;;5029210;28;20565;-71
2023/07/29 01:23:30;;;;;;;10.02;2.38;;;;;;;;;;4994153;28;20167;-73
2023/07/29 01:25:58;;;;;;;8.25;2.85;;;;;;;;;;4992117;28;20119;-74
2023/07/29 01:28:24;;;;;;;9.70;2.45;;;;;;;;;;4995930;28;20037;-76
2023/07/29 01:30:56;;;;;;;10.27;2.38;;;;;;;;;;4996083;28;20106;-74
2023/07/29 01:33:25;;;;;;;8.27;2.30;;;;;;;;;;4996096;28;20079;-74
2023/07/29 01:35:53;;;;;;;8.70;2.70;;;;;;;;;;4997003;28;20130;-73
2023/07/29 01:38:20;;;;;;;11.85;3.17;;;;;;;;;;4997051;28;20049;-74
2023/07/29 01:40:48;;;;;;;9.35;2.58;;;;;;;;;;4998220;28;20135;-74
2023/07/29 01:43:13;;;;;;;11.98;2.85;;;;;;;;;;4996384;28;20096;-74
2023/07/29 01:45:38;;;;;;;8.27;2.35;;;;;;;;;;5018023;28;20047;-72
2023/07/29 01:48:04;;;;;;;9.82;2.97;;;;;;;;;;5018019;28;20036;-74
2023/07/29 01:50:32;;;;;;;7.45;2.80;;;;;;;;;;5029193;28;20124;-74
2023/07/29 01:52:58;;;;;;;12.85;3.30;;;;;;;;;;5014741;28;20106;-73
2023/07/29 01:55:23;;;;;;;12.05;2.88;;;;;;;;;;5015727;28;20518;-72
2023/07/29 01:57:48;;;;;;;12.38;3.15;;;;;;;;;;5016686;28;20349;-72
2023/07/29 02:00:14;;;;;;;12.13;2.90;;;;;;;;;;5016361;28;20720;-72
2023/07/29 02:02:39;;;;;;;9.10;2.65;;;;;;;;;;5047259;28;20037;-73
2023/07/29 02:05:07;;;;;;;7.95;2.78;;;;;;;;;;5014040;28;20513;-72
2023/07/29 02:07:32;;;;;;;10.63;2.72;;;;;;;;;;5016012;28;20761;-73
2023/07/29 02:09:58;;;;;;;12.43;3.03;;;;;;;;;;5016301;28;20033;-73
2023/07/29 02:12:23;;;;;;;12.50;3.10;;;;;;;;;;5017101;28;20541;-73
2023/07/29 02:14:49;;;;;;;13.45;2.67;;;;;;;;;;5016991;28;20818;-73
2023/07/29 02:17:14;;;;;;;15.70;3.00;;;;;;;;;;5016926;28;20037;-74
2023/07/29 02:19:39;;;;;;;8.07;2.42;;;;;;;;;;5014790;28;20037;-75
2023/07/29 02:22:07;;;;;;;12.13;2.78;;;;;;;;;;5028720;28;20475;-74
2023/07/29 02:24:32;;;;;;;8.75;2.58;;;;;;;;;;5016136;28;20128;-73
2023/07/29 02:26:57;;;;;;;11.07;2.75;;;;;;;;;;5016656;28;20142;-73
2023/07/29 02:29:23;;;;;;;12.25;2.80;;;;;;;;;;5016718;28;20156;-73
2023/07/29 02:31:51;;;;;;;8.35;2.40;;;;;;;;;;5030147;28;20041;-74
2023/07/29 02:34:16;;;;;;;11.77;2.80;;;;;;;;;;5048144;28;20033;-73
2023/07/29 02:36:41;;;;;;;10.85;2.53;;;;;;;;;;5015457;28;20056;-75
2023/07/29 02:39:07;;;;;;;12.20;2.97;;;;;;;;;;5016115;28;20509;-73
2023/07/29 02:41:32;;;;;;;11.60;2.58;;;;;;;;;;5014487;28;20044;-74
2023/07/29 02:43:57;;;;;;;10.23;2.78;;;;;;;;;;5046938;28;20048;-73
2023/07/29 02:46:23;;;;;;;13.65;3.17;;;;;;;;;;5015114;28;21926;-74
2023/07/29 02:48:48;;;;;;;13.52;3.00;;;;;;;;;;5016911;28;20045;-73
2023/07/29 02:51:13;;;;;;;10.32;3.13;;;;;;;;;;5018925;28;20652;-74
2023/07/29 02:53:39;;;;;;;9.80;2.50;;;;;;;;;;5014398;28;20041;-73
2023/07/29 02:56:08;;;;;;;14.38;2.70;;;;;;;;;;5014726;28;20611;-73
2023/07/29 02:58:34;;;;;;;11.18;2.83;;;;;;;;;;5041609;28;20037;-73
2023/07/29 03:01:03;;;;;;;13.23;2.83;;;;;;;;;;5003508;28;20066;-74
2023/07/29 03:03:28;;;;;;;8.55;2.60;;;;;;;;;;4995085;28;20047;-73
2023/07/29 03:05:58;;;;;;;10.10;2.70;;;;;;;;;;4996860;28;20189;-73
2023/07/29 03:08:23;;;;;;;11.98;2.50;;;;;;;;;;4997464;28;20251;-73
2023/07/29 03:10:48;;;;;;;10.63;2.50;;;;;;;;;;4994044;28;20743;-73
2023/07/29 03:13:13;;;;;;;9.25;2.65;;;;;;;;;;5002298;28;20079;-72
2023/07/29 03:15:39;;;;;;;13.13;3.00;;;;;;;;;;5014696;28;20033;-73
2023/07/29 03:18:04;;;;;;;10.88;2.50;;;;;;;;;;5015040;28;20057;-73
2023/07/29 03:20:32;;;;;;;9.88;2.75;;;;;;;;;;5017261;28;20275;-73
2023/07/29 03:22:57;;;;;;;11.27;3.22;;;;;;;;;;5014235;28;20656;-74
2023/07/29 03:25:24;;;;;;;11.38;2.85;;;;;;;;;;5010794;28;20487;-71
2023/07/29 03:27:50;;;;;;;15.15;2.85;;;;;;;;;;5015422;28;20029;-73
2023/07/29 03:30:15;;;;;;;8.93;2.67;;;;;;;;;;5016489;28;20028;-72
2023/07/29 03:32:44;;;;;;;11.52;2.78;;;;;;;;;;5017567;28;20570;-72
2023/07/29 03:35:09;;;;;;;10.82;2.47;;;;;;;;;;5016900;28;20486;-73
2023/07/29 03:37:34;;;;;;;10.55;3.15;;;;;;;;;;5019351;28;20049;-73
2023/07/29 03:40:00;;;;;;;15.15;3.20;;;;;;;;;;5049890;28;20065;-74
2023/07/29 03:42:25;;;;;;;10.63;2.75;;;;;;;;;;5019599;28;20118;-73
2023/07/29 03:44:50;;;;;;;15.55;3.50;;;;;;;;;;5012391;28;20393;-73
2023/07/29 03:47:15;;;;;;;10.32;2.67;;;;;;;;;;5034057;28;20048;-73
2023/07/29 03:49:41;;;;;;;9.15;2.58;;;;;;;;;;5018918;28;20041;-72
2023/07/29 03:52:06;;;;;;;12.05;2.97;;;;;;;;;;5018283;28;20045;-73
2023/07/29 03:54:31;;;;;;;13.52;3.03;;;;;;;;;;5016407;28;20068;-74
2023/07/29 03:56:59;;;;;;;8.50;2.17;;;;;;;;;;5018048;28;20041;-74
2023/07/29 03:59:26;;;;;;;4.85;2.00;;;;;;;;;;5018664;28;20132;-74
2023/07/29 04:01:54;;;;;;;12.18;2.85;;;;;;;;;;5019674;28;20029;-74
2023/07/29 04:04:19;;;;;;;14.48;3.10;;;;;;;;;;5018128;28;20321;-73
2023/07/29 04:06:45;;;;;;;10.73;2.53;;;;;;;;;;5019346;28;20056;-75
2023/07/29 04:09:10;;;;;;;10.02;3.28;;;;;;;;;;5013485;28;20048;-73
2023/07/29 04:11:35;;;;;;;9.70;2.53;;;;;;;;;;5020096;28;20905;-72
2023/07/29 04:14:01;;;;;;;12.25;2.88;;;;;;;;;;5018347;28;20092;-75
2023/07/29 04:16:28;;;;;;;10.73;3.20;;;;;;;;;;5017013;28;20041;-73
2023/07/29 04:18:54;;;;;;;12.13;2.72;;;;;;;;;;5050053;28;20191;-73
2023/07/29 04:21:21;;;;;;;10.65;2.63;;;;;;;;;;5022320;28;20626;-73
2023/07/29 04:23:47;;;;;;;14.60;2.58;;;;;;;;;;5019393;28;20102;-73
2023/07/29 04:26:12;;;;;;;11.15;2.78;;;;;;;;;;5016046;28;20156;-73
2023/07/29 04:28:37;;;;;;;12.63;2.30;;;;;;;;;;5016649;28;20033;-75
2023/07/29 04:31:03;;;;;;;8.90;2.83;;;;;;;;;;5018132;28;20179;-74
2023/07/29 04:33:31;;;;;;;7.07;2.45;;;;;;;;;;5018533;28;20124;-69
2023/07/29 04:35:56;;;;;;;10.30;2.65;;;;;;;;;;5017064;28;20429;-73
2023/07/29 04:38:27;;;;;;;9.88;2.95;;;;;;;;;;5013177;28;20115;-72
2023/07/29 04:40:52;;;;;;;11.55;2.58;;;;;;;;;;5014723;28;20040;-72
2023/07/29 04:43:18;;;;;;;9.68;2.75;;;;;;;;;;5017270;28;20025;-74
2023/07/29 04:45:43;;;;;;;13.38;2.72;;;;;;;;;;5018548;28;20036;-74
2023/07/29 04:48:11;;;;;;;10.52;2.50;;;;;;;;;;5015958;28;20397;-72
2023/07/29 04:50:36;;;;;;;7.38;2.53;;;;;;;;;;5017880;28;20029;-74
2023/07/29 04:53:02;;;;;;;10.80;2.88;;;;;;;;;;5016024;28;20037;-73
2023/07/29 04:55:27;;;;;;;12.90;2.90;;;;;;;;;;5017713;28;20672;-75
2023/07/29 04:57:52;;;;;;;13.20;2.83;;;;;;;;;;5016594;28;20029;-73
2023/07/29 05:00:20;;;;;;;8.70;2.70;;;;;;;;;;5049001;28;20453;-73
2023/07/29 05:02:45;;;;;;;14.45;2.80;;;;;;;;;;5018719;28;20029;-72
2023/07/29 05:05:13;;;;;;;9.88;2.33;;;;;;;;;;5019700;28;20040;-77
2023/07/29 05:07:38;;;;;;;12.85;2.50;;;;;;;;;;5000913;28;20029;-75
2023/07/29 05:10:04;;;;;;;13.18;2.65;;;;;;;;;;4998978;28;20034;-74
2023/07/29 05:12:29;;;;;;;11.32;2.70;;;;;;;;;;5029463;28;20561;-76
2023/07/29 05:14:55;;;;;;;9.95;2.65;;;;;;;;;;4996105;28;20033;-75
2023/07/29 05:17:20;;;;;;;10.27;2.90;;;;;;;;;;4997392;28;20069;-77
2023/07/29 05:19:45;;;;;;;13.68;3.13;;;;;;;;;;5011613;28;20029;-79
2023/07/29 05:22:10;;;;;;;10.88;2.72;;;;;;;;;;5049079;28;22054;-76
2023/07/29 05:24:36;;;;;;;12.30;2.90;;;;;;;;;;5017382;28;20041;-75
2023/07/29 05:27:01;;;;;;;13.75;3.10;;;;;;;;;;5046884;28;20113;-77
2023/07/29 05:29:26;;;;;;;15.90;3.20;;;;;;;;;;5019502;28;20049;-77
2023/07/29 05:31:52;;;;;;;15.10;2.72;;;;;;;;;;4998391;28;20033;-75
2023/07/29 05:34:17;;;;;;;11.30;2.95;;;;;;;;;;4998253;28;22144;-75
2023/07/29 05:36:45;;;;;;;11.77;3.03;;;;;;;;;;4997761;28;20156;-74
2023/07/29 05:39:12;;;;;;;11.35;2.60;;;;;;;;;;5029781;28;21079;-74
2023/07/29 05:41:37;;;;;;;13.77;2.90;;;;;;;;;;4997947;28;20095;-77
2023/07/29 05:44:02;;;;;;;11.02;2.55;;;;;;;;;;4998579;28;20041;-75
2023/07/29 05:46:27;;;;;;;11.68;3.08;;;;;;;;;;5018361;28;20048;-76
2023/07/29 05:48:53;;;;;;;12.25;2.45;;;;;;;;;;5015517;28;20045;-75
2023/07/29 05:51:19;;;;;;;9.40;2.70;;;;;;;;;;5016531;28;20047;-76
2023/07/29 05:53:44;;;;;;;7.90;2.47;;;;;;;;;;5012537;28;20181;-76
2023/07/29 05:56:10;;;;;;;13.38;3.35;;;;;;;;;;5017892;28;20037;-76
2023/07/29 05:58:35;;;;;;;11.23;2.95;;;;;;;;;;5017023;28;20041;-78
2023/07/29 06:01:00;;;;;;;10.80;2.45;;;;;;;;;;5014638;28;20029;-77
2023/07/29 06:03:26;;;;;;;12.05;2.80;;;;;;;;;;5014010;28;20037;-77
2023/07/29 06:05:51;;;;;;;17.88;2.95;;;;;;;;;;5015109;28;20044;-77
2023/07/29 06:08:17;;;;;;;18.13;2.83;;;;;;;;;;5049139;28;20037;-75
2023/07/29 06:10:42;;;;;;;9.80;2.88;;;;;;;;;;5015140;28;20511;-75
2023/07/29 06:13:08;;;;;;;11.55;2.58;;;;;;;;;;5016686;28;20033;-76
2023/07/29 06:15:35;;;;;;;11.63;2.75;;;;;;;;;;5016674;28;20048;-77
2023/07/29 06:18:00;;;;;;;15.45;2.78;;;;;;;;;;5017516;28;20037;-76
2023/07/29 06:20:26;;;;;;;11.98;2.95;;;;;;;;;;5014286;28;20876;-76
2023/07/29 06:22:51;;;;;;;13.38;2.80;;;;;;;;;;5015186;28;20114;-76
2023/07/29 06:25:16;;;;;;;13.98;3.13;;;;;;;;;;5016940;28;20564;-76
2023/07/29 06:27:42;;;;;;;12.23;2.40;;;;;;;;;;5013455;28;20036;-76
2023/07/29 06:30:07;;;;;;;14.52;2.83;;;;;;;;;;5006794;28;20501;-77
2023/07/29 06:32:33;;;;;;;11.85;2.67;;;;;;;;;;5018690;28;20135;-76
2023/07/29 06:34:59;;;;;;;11.10;2.40;;;;;;;;;;5015277;28;20033;-76
2023/07/29 06:37:24;;;;;;;10.07;2.50;;;;;;;;;;5015685;28;20413;-76
2023/07/29 06:39:49;;;;;;;12.75;2.45;;;;;;;;;;5047856;28;20044;-76
2023/07/29 06:42:15;;;;;;;11.18;2.80;;;;;;;;;;4999685;28;20033;-78
2023/07/29 06:44:40;;;;;;;18.08;2.50;;;;;;;;;;4995598;28;22341;-75
2023/07/29 06:47:08;;;;;;;11.43;1.90;;;;;;;;;;4996703;28;20506;-78
2023/07/29 06:49:33;;;;;;;7.60;2.13;;;;;;;;;;4998296;28;21427;-76
2023/07/29 06:52:01;;;;;;;12.07;2.60;;;;;;;;;;4998136;28;20045;-77
2023/07/29 06:54:26;;;;;;;11.55;2.65;;;;;;;;;;4997321;28;20195;-77
2023/07/29 06:56:52;;;;;;;11.02;2.05;;;;;;;;;;5029080;28;20132;-75
2023/07/29 06:59:17;;;;;;;10.55;2.15;;;;;;;;;;5011646;28;20104;-72
2023/07/29 07:01:42;;;;;;;9.00;2.20;;;;;;;;;;5035505;28;20437;-75
2023/07/29 07:04:08;;;;;;;9.13;2.22;;;;;;;;;;4974769;28;20156;-73
2023/07/29 07:06:33;;;;;;;10.77;1.95;;;;;;;;;;4997592;28;20045;-76
2023/07/29 07:08:58;;;;;;;10.73;2.35;;;;;;;;;;4999706;28;20052;-76
2023/07/29 07:11:23;;;;;;;8.43;2.00;;;;;;;;;;5004052;28;20047;-75
2023/07/29 07:13:49;;;;;;;12.05;1.92;;;;;;;;;;5020842;28;20045;-76
2023/07/29 07:16:14;;;;;;;12.88;2.40;;;;;;;;;;5021987;28;20069;-76
2023/07/29 07:18:39;;;;;;;10.25;2.25;;;;;;;;;;5022012;28;20480;-74
2023/07/29 07:21:07;;;;;;;10.05;2.15;;;;;;;;;;5050366;28;20039;-75
2023/07/29 07:23:32;;;;;;;9.27;2.03;;;;;;;;;;5052508;28;20041;-77
2023/07/29 07:26:00;;;;;;;10.65;2.42;;;;;;;;;;5021471;28;20664;-75
2023/07/29 07:28:25;;;;;;;16.00;2.20;;;;;;;;;;5000595;28;20038;-75
2023/07/29 07:30:51;;;;;;;13.52;2.85;;;;;;;;;;5006322;28;20421;-75
2023/07/29 07:33:16;;;;;;;11.00;2.22;;;;;;;;;;5014305;28;20132;-75
2023/07/29 07:35:42;;;;;;;10.60;1.95;;;;;;;;;;5018750;28;20047;-77
2023/07/29 07:38:09;;;;;;;16.13;2.67;;;;;;;;;;5022040;28;20182;-75
2023/07/29 07:40:35;;;;;;;12.48;2.60;;;;;;;;;;5046864;28;20540;-75
2023/07/29 07:43:00;;;;;;;10.55;2.00;;;;;;;;;;5015786;28;20025;-75
2023/07/29 07:45:25;;;;;;;17.05;2.63;;;;;;;;;;5021296;28;21036;-74
2023/07/29 07:47:51;;;;;;;15.85;2.15;;;;;;;;;;5016054;28;20025;-75
2023/07/29 07:50:17;;;;;;;8.68;1.95;;;;;;;;;;5046813;28;20133;-74
2023/07/29 07:52:42;;;;;;;12.27;2.53;;;;;;;;;;5014451;28;20025;-74
2023/07/29 07:55:08;;;;;;;14.88;2.80;;;;;;;;;;5018092;28;20029;-73
2023/07/29 07:57:33;;;;;;;8.98;2.25;;;;;;;;;;5013602;28;20080;-75
2023/07/29 07:59:58;;;;;;;14.40;2.30;;;;;;;;;;5015643;28;20061;-74
2023/07/29 08:02:26;;;;;;;8.65;2.78;;;;;;;;;;4998886;28;20482;-73
2023/07/29 08:04:51;;;;;;;14.27;3.13;;;;;;;;;;4996975;28;20184;-76
2023/07/29 08:07:19;;;;;;;12.35;2.50;;;;;;;;;;4995318;28;20237;-75
2023/07/29 08:09:45;;;;;;;14.35;2.55;;;;;;;;;;4996927;28;20156;-75
2023/07/29 08:12:10;;;;;;;13.18;2.55;;;;;;;;;;4996968;28;20098;-74
2023/07/29 08:14:36;;;;;;;16.45;2.80;;;;;;;;;;4999330;28;20129;-76
2023/07/29 08:17:01;;;;;;;12.05;2.50;;;;;;;;;;5028364;28;20037;-76
2023/07/29 08:19:27;;;;;;;14.50;3.22;;;;;;;;;;4999470;28;20104;-77
2023/07/29 08:21:52;;;;;;;15.38;3.22;;;;;;;;;;4999438;28;20148;-76
2023/07/29 08:24:20;;;;;;;17.55;2.90;;;;;;;;;;4996701;28;20037;-75
2023/07/29 08:26:45;;;;;;;14.45;3.42;;;;;;;;;;4997407;28;20048;-77
2023/07/29 08:29:12;;;;;;;14.57;2.90;;;;;;;;;;4998833;28;20037;-76
2023/07/29 08:31:37;;;;;;;12.82;3.35;;;;;;;;;;4994724;28;20041;-74
2023/07/29 08:34:02;;;;;;;17.70;3.20;;;;;;;;;;5000040;28;20053;-76
2023/07/29 08:36:27;;;;;;;16.45;3.10;;;;;;;;;;5011007;28;20048;-76
2023/07/29 08:38:53;;;;;;;12.82;3.00;;;;;;;;;;5018779;28;20041;-77
2023/07/29 08:41:24;;;;;;;12.20;3.10;;;;;;;;;;5018857;28;20615;-73
2023/07/29 08:43:56;;;;;;;19.48;3.13;;;;;;;;;;5014990;28;20763;-73
2023/07/29 08:46:21;;;;;;;15.30;3.38;;;;;;;;;;5033580;28;20056;-75
2023/07/29 08:48:47;;;;;;;14.65;3.17;;;;;;;;;;5019986;28;20057;-76
2023/07/29 08:51:14;;;;;;;14.88;3.05;;;;;;;;;;5019320;28;20053;-78
2023/07/29 08:53:42;;;;;;;14.30;3.30;;;;;;;;;;5026622;28;20135;-69
2023/07/29 08:56:07;;;;;;;17.48;3.58;;;;;;;;;;5001750;28;20414;-78
2023/07/29 08:58:33;;;;;;;15.20;3.05;;;;;;;;;;5001043;28;20045;-75
2023/07/29 09:01:01;;;;;;;13.98;3.42;;;;;;;;;;4999191;28;20041;-77
2023/07/29 09:03:28;;;;;;;12.68;3.35;;;;;;;;;;5000049;28;20034;-74
2023/07/29 09:05:54;;;;;;;12.73;3.30;;;;;;;;;;5000914;28;20124;-75
2023/07/29 09:08:21;;;;;;;13.00;2.83;;;;;;;;;;5002234;28;20811;-76
2023/07/29 09:10:46;;;;;;;17.77;3.17;;;;;;;;;;4999721;28;20174;-74
2023/07/29 09:13:11;;;;;;;12.98;3.30;;;;;;;;;;4995776;28;20053;-76
2023/07/29 09:15:37;;;;;;;13.32;3.40;;;;;;;;;;5000831;28;20045;-74
2023/07/29 09:18:17;;;;;;;14.00;3.42;;;;;;;;;;5014877;28;20041;-78
2023/07/29 09:20:48;;;;;;;16.17;3.35;;;;;;;;;;5015549;28;20035;-77
2023/07/29 09:23:13;;;;;;;17.33;3.50;;;;;;;;;;5011299;28;20048;-76
2023/07/29 09:25:40;;;;;;;14.60;3.35;;;;;;;;;;5016852;28;20025;-77
2023/07/29 09:28:10;;;;;;;10.65;2.80;;;;;;;;;;5018699;28;20052;-74
2023/07/29 09:30:35;;;;;;;17.63;3.60;;;;;;;;;;4996158;28;22473;-74
2023/07/29 09:33:01;;;;;;;12.55;3.08;;;;;;;;;;5008849;28;20046;-77
2023/07/29 09:35:28;;;;;;;14.57;3.15;;;;;;;;;;4994547;28;20044;-77
2023/07/29 09:37:53;;;;;;;11.70;2.67;;;;;;;;;;4993320;28;20115;-76
2023/07/29 09:40:18;;;;;;;15.65;3.05;;;;;;;;;;5005840;28;20086;-77
2023/07/29 09:42:50;;;;;;;18.35;3.15;;;;;;;;;;5016903;28;20037;-75
2023/07/29 09:45:19;;;;;;;12.77;3.00;;;;;;;;;;5015546;28;22061;-75
2023/07/29 09:47:47;;;;;;;15.27;3.20;;;;;;;;;;5013034;28;20071;-75
2023/07/29 09:50:14;;;;;;;11.02;2.45;;;;;;;;;;5012117;28;20051;-76
2023/07/29 09:52:41;;;;;;;10.73;2.75;;;;;;;;;;5047737;28;20029;-75
2023/07/29 09:55:07;;;;;;;14.95;2.78;;;;;;;;;;5012848;28;20490;-76
2023/07/29 09:57:32;;;;;;;8.13;3.00;;;;;;;;;;5014416;28;20136;-76
2023/07/29 10:00:01;;;;;;;11.20;2.90;;;;;;;;;;5009619;28;20032;-76
2023/07/29 10:02:28;;;;;;;11.57;2.90;;;;;;;;;;5030853;28;20037;-76
2023/07/29 10:04:54;;;;;;;11.23;3.03;;;;;;;;;;5033000;28;20073;-76
2023/07/29 10:07:20;;;;;;;11.32;2.83;;;;;;;;;;5014498;28;20805;-77
2023/07/29 10:09:45;;;;;;;11.63;2.83;;;;;;;;;;5017035;28;20036;-75
2023/07/29 10:12:13;;;;;;;12.88;3.38;;;;;;;;;;5012081;28;20048;-75
2023/07/29 10:14:38;;;;;;;12.82;3.00;;;;;;;;;;4995962;28;20057;-76
2023/07/29 10:17:04;;;;;;;12.95;3.50;;;;;;;;;;4985016;28;20100;-75
2023/07/29 10:19:30;;;;;;;13.75;3.58;;;;;;;;;;4993629;28;20037;-77
2023/07/29 10:21:58;;;;;;;13.60;3.28;;;;;;;;;;4991373;28;20052;-76
2023/07/29 10:24:28;;;;;;;9.63;3.58;;;;;;;;;;4999884;28;20052;-76
2023/07/29 10:26:56;;;;;;;14.27;3.70;;;;;;;;;;5010788;28;20328;-75
2023/07/29 10:29:23;;;;;;;15.35;3.50;;;;;;;;;;5012328;28;20029;-75
2023/07/29 10:31:50;;;;;;;20.10;3.47;;;;;;;;;;4998990;28;20044;-74
2023/07/29 10:34:15;;;;;;;12.98;3.00;;;;;;;;;;5030588;28;20402;-77
2023/07/29 10:36:41;;;;;;;16.60;3.75;;;;;;;;;;5015830;28;20052;-73
2023/07/29 10:39:07;;;;;;;14.85;3.45;;;;;;;;;;5048239;28;20044;-76
2023/07/29 10:41:54;;;;;;;17.38;3.40;;;;;;;;;;5013573;28;20045;-75
2023/07/29 10:44:38;;;;;;;11.77;2.80;;;;;;;;;;4999143;28;20088;-75
2023/07/29 10:47:13;;;;;;;10.38;2.60;;;;;;;;;;4995833;28;20042;-75
2023/07/29 10:49:41;;;;;;;10.65;2.85;;;;;;;;;;4994238;28;20485;-75
2023/07/29 10:52:06;;;;;;;8.95;2.55;;;;;;;;;;4995289;28;20038;-74
2023/07/29 10:54:41;;;;;;;7.45;1.98;;;;;;;;;;5006146;28;20179;-75
2023/07/29 10:57:06;;;;;;;17.65;2.50;;;;;;;;;;5008048;28;20103;-74
2023/07/29 10:59:33;;;;;;;9.65;2.13;;;;;;;;;;5003570;28;20030;-77
2023/07/29 11:01:58;;;;;;;9.82;2.20;;;;;;;;;;4996833;28;20418;-77
2023/07/29 11:04:27;;;;;;;8.82;1.90;;;;;;;;;;5003262;28;20088;-76
2023/07/29 11:07:08;;;;;;;9.43;2.10;;;;;;;;;;4995601;28;20062;-76
2023/07/29 11:09:51;;;;;;;9.52;2.10;;;;;;;;;;4996243;28;20025;-77
2023/07/29 11:12:35;;;;;;;8.00;1.92;;;;;;;;;;4996570;28;20041;-75
2023/07/29 11:15:05;;;;;;;11.02;2.00;;;;;;;;;;4995741;28;20034;-76
2023/07/29 11:17:36;;;;;;;9.27;2.00;;;;;;;;;;4994474;28;20053;-76
2023/07/29 11:20:04;;;;;;;11.93;2.22;;;;;;;;;;5015970;28;20044;-75
2023/07/29 11:22:30;;;;;;;10.38;2.03;;;;;;;;;;5049087;28;20033;-73
2023/07/29 11:24:55;;;;;;;8.45;2.05;;;;;;;;;;5018607;28;20036;-74
2023/07/29 11:27:23;;;;;;;9.32;2.33;;;;;;;;;;5015337;28;20048;-73
2023/07/29 11:29:56;;;;;;;6.60;1.90;;;;;;;;;;5018574;28;20039;-76
2023/07/29 11:32:21;;;;;;;10.32;2.13;;;;;;;;;;5015223;28;20045;-73
2023/07/29 11:34:47;;;;;;;7.90;1.88;;;;;;;;;;5044120;28;20044;-75
2023/07/29 11:37:12;;;;;;;11.18;1.98;;;;;;;;;;5010378;28;20620;-77
2023/07/29 11:39:44;;;;;;;13.57;2.05;;;;;;;;;;5017219;28;20025;-74
2023/07/29 11:42:12;;;;;;;11.18;2.50;;;;;;;;;;5011400;28;20032;-76
2023/07/29 11:44:40;;;;;;;9.63;2.17;;;;;;;;;;5011842;28;20603;-73
2023/07/29 11:47:06;;;;;;;9.10;1.67;;;;;;;;;;5018310;28;20037;-73
2023/07/29 11:49:37;;;;;;;13.50;1.60;;;;;;;;;;5052128;28;20166;-77
2023/07/29 11:52:03;;;;;;;7.78;1.55;;;;;;;;;;5016267;28;20037;-76
2023/07/29 11:54:28;;;;;;;5.97;1.50;;;;;;;;;;5019196;28;22315;-74
2023/07/29 11:56:55;;;;;;;7.50;1.70;;;;;;;;;;5019658;28;20127;-76
2023/07/29 11:59:20;;;;;;;8.02;1.27;;;;;;;;;;5042313;28;20681;-73
2023/07/29 12:01:45;;;;;;;13.85;1.95;;;;;;;;;;5026191;28;20139;-72
2023/07/29 12:04:11;;;;;;;11.25;2.00;;;;;;;;;;5019869;28;20044;-74
2023/07/29 12:06:37;;;;;;;13.30;1.90;;;;;;;;;;5022119;28;20516;-73
2023/07/29 12:09:03;;;;;;;8.32;1.73;;;;;;;;;;5001122;28;22226;-74
2023/07/29 12:11:28;;;;;;;12.00;1.98;;;;;;;;;;4998120;28;20100;-76
2023/07/29 12:13:56;;;;;;;12.07;1.90;;;;;;;;;;5027279;28;20743;-75
2023/07/29 12:16:21;;;;;;;11.65;1.70;;;;;;;;;;4980275;28;20151;-67
2023/07/29 12:18:48;;;;;;;12.60;1.30;;;;;;;;;;4995044;28;21771;-68
2023/07/29 12:21:14;;;;;;;13.48;1.80;;;;;;;;;;4996276;28;20671;-68
2023/07/29 12:23:39;;;;;;;11.27;1.85;;;;;;;;;;4997297;28;20029;-67
2023/07/29 12:26:07;;;;;;;12.73;2.10;;;;;;;;;;4997663;28;20025;-65
2023/07/29 12:28:32;;;;;;;10.60;1.65;;;;;;;;;;4992672;28;20120;-67
2023/07/29 12:31:00;;;;;;;13.73;1.83;;;;;;;;;;4996773;28;20041;-68
2023/07/29 12:33:31;;;;;;;12.93;1.67;;;;;;;;;;4994162;28;21047;-67
2023/07/29 12:35:56;;;;;;;;;;;;;;;;;;5027666;28;20099;-67
2023/07/29 12:38:22;;;;;;;8.87;1.63;;;;;;;;;;5008016;28;22142;-68
2023/07/29 12:40:47;;;;;;;8.40;1.30;;;;;;;;;;5015989;28;20294;-66
2023/07/29 12:43:12;;;;;;;6.95;1.20;;;;;;;;;;5019485;28;20052;-67
2023/07/29 12:45:42;;;;;;;7.82;1.10;;;;;;;;;;5012825;28;20962;-67
2023/07/29 12:48:07;;;;;;;7.68;1.40;;;;;;;;;;5014964;28;20037;-67
2023/07/29 12:50:33;;;;;;;5.03;1.20;;;;;;;;;;5013018;28;21052;-67
2023/07/29 12:52:58;;;;;;;6.25;1.10;;;;;;;;;;5009092;28;20041;-67
2023/07/29 12:55:23;;;;;;;8.50;1.33;;;;;;;;;;5011830;28;20479;-66
2023/07/29 12:57:49;;;;;;;8.65;1.15;;;;;;;;;;5010074;28;20045;-68
2023/07/29 13:00:15;;;;;;;9.77;1.30;;;;;;;;;;5014042;28;20099;-68
2023/07/29 13:02:40;;;;;;;4.97;1.20;;;;;;;;;;5013429;28;20041;-66
2023/07/29 13:05:06;;;;;;;7.28;1.30;;;;;;;;;;5013552;28;20076;-66
2023/07/29 13:07:31;;;;;;;8.48;1.13;;;;;;;;;;5015032;28;20037;-66
2023/07/29 13:09:56;;;;;;;9.63;1.38;;;;;;;;;;5013578;28;20486;-66
2023/07/29 13:12:24;;;;;;;9.50;1.30;;;;;;;;;;5012892;28;20045;-68
2023/07/29 13:14:52;;;;;;;4.50;0.90;;;;;;;;;;5014909;28;20037;-67
2023/07/29 13:17:17;;;;;;;8.82;0.90;;;;;;;;;;5012133;28;20628;-66
2023/07/29 13:19:42;;;;;;;8.52;1.20;;;;;;;;;;5010638;28;21863;-68
2023/07/29 13:22:08;;;;;;;5.82;1.10;;;;;;;;;;5014236;28;20040;-68
2023/07/29 13:24:33;;;;;;;7.22;1.02;;;;;;;;;;5011719;28;20037;-66
2023/07/29 13:27:01;;;;;;;6.68;1.30;;;;;;;;;;5012108;28;20070;-67
2023/07/29 13:29:26;;;;;;;6.65;1.20;;;;;;;;;;5011930;28;20029;-66
2023/07/29 13:31:51;;;;;;;8.52;0.82;;;;;;;;;;5006110;28;20029;-67
2023/07/29 13:34:19;;;;;;;10.63;1.10;;;;;;;;;;5010072;28;20319;-65
2023/07/29 13:36:44;;;;;;;8.70;1.58;;;;;;;;;;5009385;28;20045;-68
2023/07/29 13:39:09;;;;;;;5.45;0.90;;;;;;;;;;5010622;28;20148;-69
2023/07/29 13:41:34;;;;;;;5.75;1.13;;;;;;;;;;5011057;28;20185;-68
2023/07/29 13:44:00;;;;;;;11.20;1.52;;;;;;;;;;5014597;28;20184;-68
2023/07/29 13:46:27;;;;;;;6.25;0.90;;;;;;;;;;5012577;28;20033;-68
2023/07/29 13:48:52;;;;;;;8.32;1.17;;;;;;;;;;5011797;28;20408;-70
2023/07/29 13:51:18;;;;;;;7.30;1.25;;;;;;;;;;5041208;28;20143;-67
2023/07/29 13:53:43;;;;;;;11.60;1.85;;;;;;;;;;5012690;28;20083;-69
2023/07/29 13:56:08;;;;;;;22.85;2.55;;;;;;;;;;5013114;28;20096;-67
2023/07/29 13:58:36;;;;;;;12.02;2.78;;;;;;;;;;5013863;28;20035;-66
2023/07/29 14:01:01;;;;;;;9.35;1.70;;;;;;;;;;5009696;28;20110;-69
2023/07/29 14:03:26;;;;;;;10.30;2.10;;;;;;;;;;5009079;28;20041;-71
2023/07/29 14:05:54;;;;;;;11.00;1.92;;;;;;;;;;5009986;28;20033;-69
2023/07/29 14:08:19;;;;;;;9.50;1.95;;;;;;;;;;5013533;28;20025;-69
2023/07/29 14:10:44;;;;;;;9.75;1.75;;;;;;;;;;5014376;28;20060;-69
2023/07/29 14:13:13;;;;;;;11.48;3.28;;;;;;;;;;5012551;28;20496;-67
2023/07/29 14:15:38;;;;;;;5.25;1.60;;;;;;;;;;5001612;28;23294;-66
2023/07/29 14:18:03;;;;;;;8.38;2.03;;;;;;;;;;4992709;28;20107;-69
2023/07/29 14:20:28;;;;;;;6.53;1.38;;;;;;;;;;4992489;28;20038;-64
2023/07/29 14:22:54;;;;;;;6.90;1.63;;;;;;;;;;4984039;28;20044;-68
2023/07/29 14:25:21;;;;;;;8.20;1.58;;;;;;;;;;4988964;28;20433;-66
2023/07/29 14:27:46;;;;;;;7.70;1.40;;;;;;;;;;4989292;28;20033;-75
2023/07/29 14:30:12;;;;;;;10.10;1.73;;;;;;;;;;4990399;28;20034;-75
2023/07/29 14:32:37;;;;;;;5.93;1.40;;;;;;;;;;4990156;28;20114;-74